sensor_id;sensor_type;location;lat;lon;timestamp;pressure;altitude;pressure_sealevel;temperature;humidity
77723;BME280;67811;42.656;23.394;2023-07-22T00:00:35;94966.97;;;25.29;47.68
77723;BME280;67811;42.656;23.394;2023-07-22T00:03:01;94978.88;;;25.33;47.53
77723;BME280;67811;42.656;23.394;2023-07-22T00:05:26;94978.63;;;25.30;47.57
77723;BME280;67811;42.656;23.394;2023-07-22T00:07:51;94985.97;;;25.29;47.90
77723;BME280;67811;42.656;23.394;2023-07-22T00:10:17;94991.91;;;25.31;47.44
77723;BME280;67811;42.656;23.394;2023-07-22T00:12:42;94997.66;;;25.19;48.05
77723;BME280;67811;42.656;23.394;2023-07-22T00:15:08;95003.69;;;25.11;47.47
77723;BME280;67811;42.656;23.394;2023-07-22T00:17:33;95009.94;;;25.07;47.66
77723;BME280;67811;42.656;23.394;2023-07-22T00:19:58;95007.72;;;25.14;48.13
77723;BME280;67811;42.656;23.394;2023-07-22T00:22:24;95013.41;;;25.17;48.30
77723;BME280;67811;42.656;23.394;2023-07-22T00:24:49;94999.88;;;25.07;48.74
77723;BME280;67811;42.656;23.394;2023-07-22T00:27:14;95000.66;;;25.18;48.77
77723;BME280;67811;42.656;23.394;2023-07-22T00:29:40;95009.94;;;24.96;49.82
77723;BME280;67811;42.656;23.394;2023-07-22T00:32:05;95004.53;;;24.86;49.92
77723;BME280;67811;42.656;23.394;2023-07-22T00:34:30;95001.03;;;24.86;50.21
77723;BME280;67811;42.656;23.394;2023-07-22T00:36:56;95009.69;;;24.78;51.09
77723;BME280;67811;42.656;23.394;2023-07-22T00:39:21;95005.94;;;24.79;51.59
77723;BME280;67811;42.656;23.394;2023-07-22T00:41:46;95010.00;;;24.71;51.71
77723;BME280;67811;42.656;23.394;2023-07-22T00:44:12;95003.78;;;24.60;52.00
77723;BME280;67811;42.656;23.394;2023-07-22T00:46:37;95005.16;;;24.58;51.81
77723;BME280;67811;42.656;23.394;2023-07-22T00:49:02;95011.41;;;24.48;51.36
77723;BME280;67811;42.656;23.394;2023-07-22T00:51:29;95014.94;;;24.43;51.66
77723;BME280;67811;42.656;23.394;2023-07-22T00:53:54;95013.00;;;24.59;50.81
77723;BME280;67811;42.656;23.394;2023-07-22T00:56:20;95014.09;;;24.63;51.26
77723;BME280;67811;42.656;23.394;2023-07-22T00:58:45;95016.81;;;24.58;51.68
77723;BME280;67811;42.656;23.394;2023-07-22T01:01:10;95024.13;;;24.58;51.64
77723;BME280;67811;42.656;23.394;2023-07-22T01:03:36;95016.81;;;24.58;51.70
77723;BME280;67811;42.656;23.394;2023-07-22T01:06:02;95012.78;;;24.46;52.24
77723;BME280;67811;42.656;23.394;2023-07-22T01:08:27;95020.91;;;24.35;52.14
77723;BME280;67811;42.656;23.394;2023-07-22T01:10:52;95012.50;;;24.32;52.25
77723;BME280;67811;42.656;23.394;2023-07-22T01:13:18;95012.50;;;24.32;52.33
77723;BME280;67811;42.656;23.394;2023-07-22T01:15:43;95008.16;;;24.31;52.04
77723;BME280;67811;42.656;23.394;2023-07-22T01:18:08;94988.13;;;24.37;50.15
77723;BME280;67811;42.656;23.394;2023-07-22T01:20:34;94991.63;;;24.32;49.92
77723;BME280;67811;42.656;23.394;2023-07-22T01:23:00;94993.00;;;24.25;50.44
77723;BME280;67811;42.656;23.394;2023-07-22T01:25:27;95000.06;;;24.36;49.54
77723;BME280;67811;42.656;23.394;2023-07-22T01:27:53;95001.66;;;24.22;49.29
77723;BME280;67811;42.656;23.394;2023-07-22T01:30:19;95004.66;;;24.05;50.21
77723;BME280;67811;42.656;23.394;2023-07-22T01:32:44;94994.09;;;24.24;49.61
77723;BME280;67811;42.656;23.394;2023-07-22T01:35:09;94985.41;;;24.22;50.36
77723;BME280;67811;42.656;23.394;2023-07-22T01:37:35;94978.38;;;24.15;50.58
77723;BME280;67811;42.656;23.394;2023-07-22T01:40:01;94976.25;;;24.17;50.68
77723;BME280;67811;42.656;23.394;2023-07-22T01:42:26;94979.75;;;23.92;51.55
77723;BME280;67811;42.656;23.394;2023-07-22T01:44:52;94986.25;;;23.86;52.58
77723;BME280;67811;42.656;23.394;2023-07-22T01:47:18;94987.59;;;23.84;53.14
77723;BME280;67811;42.656;23.394;2023-07-22T01:49:43;94984.34;;;23.77;53.54
77723;BME280;67811;42.656;23.394;2023-07-22T01:52:09;94977.28;;;23.60;54.24
77723;BME280;67811;42.656;23.394;2023-07-22T01:54:34;94982.41;;;23.52;54.93
77723;BME280;67811;42.656;23.394;2023-07-22T01:56:59;94981.03;;;23.49;55.16
77723;BME280;67811;42.656;23.394;2023-07-22T01:59:25;94979.41;;;23.43;55.65
77723;BME280;67811;42.656;23.394;2023-07-22T02:01:50;94980.22;;;23.38;55.85
77723;BME280;67811;42.656;23.394;2023-07-22T02:04:15;94985.91;;;23.37;55.70
77723;BME280;67811;42.656;23.394;2023-07-22T02:06:40;94974.50;;;23.25;56.20
77723;BME280;67811;42.656;23.394;2023-07-22T02:09:06;94971.25;;;23.28;56.18
77723;BME280;67811;42.656;23.394;2023-07-22T02:11:31;94965.81;;;23.18;56.56
77723;BME280;67811;42.656;23.394;2023-07-22T02:13:56;94973.97;;;23.28;56.08
77723;BME280;67811;42.656;23.394;2023-07-22T02:16:21;94977.22;;;23.25;56.61
77723;BME280;67811;42.656;23.394;2023-07-22T02:18:47;94976.66;;;23.28;56.63
77723;BME280;67811;42.656;23.394;2023-07-22T02:21:12;94988.06;;;23.30;56.51
77723;BME280;67811;42.656;23.394;2023-07-22T02:23:37;94989.09;;;23.29;56.58
77723;BME280;67811;42.656;23.394;2023-07-22T02:26:03;94981.59;;;23.41;56.42
77723;BME280;67811;42.656;23.394;2023-07-22T02:28:28;94979.44;;;23.53;56.33
77723;BME280;67811;42.656;23.394;2023-07-22T02:30:53;94972.94;;;23.59;56.04
77723;BME280;67811;42.656;23.394;2023-07-22T02:33:20;94983.75;;;23.59;56.46
77723;BME280;67811;42.656;23.394;2023-07-22T02:35:46;94992.19;;;23.63;55.80
77723;BME280;67811;42.656;23.394;2023-07-22T02:38:12;94988.09;;;23.60;55.96
77723;BME280;67811;42.656;23.394;2023-07-22T02:40:37;94983.50;;;23.61;55.94
77723;BME280;67811;42.656;23.394;2023-07-22T02:43:03;94998.13;;;23.65;56.26
77723;BME280;67811;42.656;23.394;2023-07-22T02:45:29;94987.50;;;23.38;57.13
77723;BME280;67811;42.656;23.394;2023-07-22T02:47:54;94995.31;;;23.29;57.64
77723;BME280;67811;42.656;23.394;2023-07-22T02:50:19;94994.47;;;23.08;58.45
77723;BME280;67811;42.656;23.394;2023-07-22T02:52:44;94998.72;;;22.89;59.14
77723;BME280;67811;42.656;23.394;2023-07-22T02:55:13;94987.09;;;22.88;59.20
77723;BME280;67811;42.656;23.394;2023-07-22T02:57:40;94986.16;;;22.73;59.86
77723;BME280;67811;42.656;23.394;2023-07-22T03:00:06;94991.06;;;22.76;59.69
77723;BME280;67811;42.656;23.394;2023-07-22T03:02:32;94993.88;;;23.01;58.85
77723;BME280;67811;42.656;23.394;2023-07-22T03:04:57;95003.63;;;22.97;58.96
77723;BME280;67811;42.656;23.394;2023-07-22T03:07:22;95003.22;;;22.78;59.59
77723;BME280;67811;42.656;23.394;2023-07-22T03:09:47;95003.75;;;22.75;59.98
77723;BME280;67811;42.656;23.394;2023-07-22T03:12:13;95001.31;;;22.79;60.20
77723;BME280;67811;42.656;23.394;2023-07-22T03:14:38;94997.31;;;22.86;59.94
77723;BME280;67811;42.656;23.394;2023-07-22T03:17:03;94997.31;;;22.81;59.76
77723;BME280;67811;42.656;23.394;2023-07-22T03:19:29;94998.91;;;22.82;59.65
77723;BME280;67811;42.656;23.394;2023-07-22T03:21:55;94999.50;;;22.90;59.69
77723;BME280;67811;42.656;23.394;2023-07-22T03:24:20;94998.13;;;22.87;59.95
77723;BME280;67811;42.656;23.394;2023-07-22T03:26:45;94997.63;;;22.90;60.26
77723;BME280;67811;42.656;23.394;2023-07-22T03:29:11;95000.91;;;22.92;59.93
77723;BME280;67811;42.656;23.394;2023-07-22T03:31:36;95004.09;;;22.89;59.53
77723;BME280;67811;42.656;23.394;2023-07-22T03:34:01;94995.13;;;22.78;59.79
77723;BME280;67811;42.656;23.394;2023-07-22T03:36:26;95002.66;;;22.71;60.48
77723;BME280;67811;42.656;23.394;2023-07-22T03:38:52;95007.81;;;22.78;60.53
77723;BME280;67811;42.656;23.394;2023-07-22T03:41:17;95015.94;;;22.83;59.99
77723;BME280;67811;42.656;23.394;2023-07-22T03:43:43;95021.88;;;22.85;59.72
77723;BME280;67811;42.656;23.394;2023-07-22T03:46:08;95024.41;;;22.92;60.63
77723;BME280;67811;42.656;23.394;2023-07-22T03:48:33;95027.41;;;23.05;59.93
77723;BME280;67811;42.656;23.394;2023-07-22T03:50:59;95025.00;;;23.09;60.47
77723;BME280;67811;42.656;23.394;2023-07-22T03:53:24;95030.47;;;23.19;60.24
77723;BME280;67811;42.656;23.394;2023-07-22T03:55:49;95032.13;;;23.30;59.25
77723;BME280;67811;42.656;23.394;2023-07-22T03:58:14;95045.91;;;23.39;60.60
77723;BME280;67811;42.656;23.394;2023-07-22T04:00:40;95038.91;;;23.48;59.17
77723;BME280;67811;42.656;23.394;2023-07-22T04:03:05;95045.16;;;23.49;60.84
77723;BME280;67811;42.656;23.394;2023-07-22T04:05:30;95047.88;;;23.59;58.44
77723;BME280;67811;42.656;23.394;2023-07-22T04:07:56;95050.06;;;23.67;58.47
77723;BME280;67811;42.656;23.394;2023-07-22T04:10:21;95052.00;;;23.77;58.44
77723;BME280;67811;42.656;23.394;2023-07-22T04:12:46;95047.94;;;23.74;57.79
77723;BME280;67811;42.656;23.394;2023-07-22T04:15:11;95047.16;;;24.09;57.96
77723;BME280;67811;42.656;23.394;2023-07-22T04:17:37;95043.63;;;24.09;55.42
77723;BME280;67811;42.656;23.394;2023-07-22T04:20:02;95047.16;;;24.19;55.66
77723;BME280;67811;42.656;23.394;2023-07-22T04:22:28;95044.44;;;24.25;54.89
77723;BME280;67811;42.656;23.394;2023-07-22T04:24:54;95042.81;;;24.34;55.59
77723;BME280;67811;42.656;23.394;2023-07-22T04:27:19;95042.03;;;24.49;55.00
77723;BME280;67811;42.656;23.394;2023-07-22T04:29:44;95050.41;;;24.57;56.06
77723;BME280;67811;42.656;23.394;2023-07-22T04:32:09;95046.84;;;24.72;53.81
77723;BME280;67811;42.656;23.394;2023-07-22T04:34:35;95053.94;;;24.48;53.74
77723;BME280;67811;42.656;23.394;2023-07-22T04:37:00;95061.53;;;24.35;54.30
77723;BME280;67811;42.656;23.394;2023-07-22T04:39:26;95064.50;;;24.44;54.08
77723;BME280;67811;42.656;23.394;2023-07-22T04:41:51;95069.34;;;24.27;54.18
77723;BME280;67811;42.656;23.394;2023-07-22T04:44:18;95062.84;;;24.33;54.53
77723;BME280;67811;42.656;23.394;2023-07-22T04:46:43;95063.41;;;24.55;54.05
77723;BME280;67811;42.656;23.394;2023-07-22T04:49:09;95065.56;;;24.68;53.96
77723;BME280;67811;42.656;23.394;2023-07-22T04:51:34;95054.16;;;24.77;53.89
77723;BME280;67811;42.656;23.394;2023-07-22T04:53:59;95063.38;;;24.81;53.70
77723;BME280;67811;42.656;23.394;2023-07-22T04:56:25;95051.44;;;24.82;53.73
77723;BME280;67811;42.656;23.394;2023-07-22T04:58:50;95053.03;;;24.88;53.97
77723;BME280;67811;42.656;23.394;2023-07-22T05:01:15;95060.34;;;24.97;53.75
77723;BME280;67811;42.656;23.394;2023-07-22T05:03:41;95061.44;;;25.12;52.77
77723;BME280;67811;42.656;23.394;2023-07-22T05:06:06;95062.22;;;25.17;52.61
77723;BME280;67811;42.656;23.394;2023-07-22T05:08:31;95066.47;;;25.44;52.29
77723;BME280;67811;42.656;23.394;2023-07-22T05:10:57;95072.19;;;25.27;52.58
77723;BME280;67811;42.656;23.394;2023-07-22T05:13:22;95073.94;;;25.67;52.35
77723;BME280;67811;42.656;23.394;2023-07-22T05:15:47;95077.16;;;25.69;51.41
77723;BME280;67811;42.656;23.394;2023-07-22T05:18:13;95082.06;;;25.78;51.43
77723;BME280;67811;42.656;23.394;2023-07-22T05:20:38;95081.34;;;26.01;51.56
77723;BME280;67811;42.656;23.394;2023-07-22T05:23:03;95075.56;;;26.13;50.61
77723;BME280;67811;42.656;23.394;2023-07-22T05:25:29;95077.00;;;26.39;51.38
77723;BME280;67811;42.656;23.394;2023-07-22T05:27:54;95080.94;;;26.23;50.86
77723;BME280;67811;42.656;23.394;2023-07-22T05:30:19;95080.34;;;25.87;51.93
77723;BME280;67811;42.656;23.394;2023-07-22T05:32:44;95075.13;;;26.00;51.69
77723;BME280;67811;42.656;23.394;2023-07-22T05:35:10;95075.66;;;25.97;51.48
77723;BME280;67811;42.656;23.394;2023-07-22T05:37:35;95078.72;;;26.25;50.86
77723;BME280;67811;42.656;23.394;2023-07-22T05:40:00;95081.31;;;26.45;49.78
77723;BME280;67811;42.656;23.394;2023-07-22T05:42:26;95090.25;;;26.80;49.79
77723;BME280;67811;42.656;23.394;2023-07-22T05:44:54;95087.22;;;26.87;49.26
77723;BME280;67811;42.656;23.394;2023-07-22T05:47:19;95078.34;;;27.00;49.32
77723;BME280;67811;42.656;23.394;2023-07-22T05:49:44;95083.75;;;27.29;48.84
77723;BME280;67811;42.656;23.394;2023-07-22T05:52:10;95085.59;;;27.57;47.42
77723;BME280;67811;42.656;23.394;2023-07-22T05:54:35;95080.94;;;27.39;47.79
77723;BME280;67811;42.656;23.394;2023-07-22T05:57:00;95087.69;;;27.66;48.49
77723;BME280;67811;42.656;23.394;2023-07-22T05:59:26;95079.94;;;27.54;47.55
77723;BME280;67811;42.656;23.394;2023-07-22T06:01:51;95073.72;;;27.72;47.47
77723;BME280;67811;42.656;23.394;2023-07-22T06:04:16;95083.97;;;27.80;47.24
77723;BME280;67811;42.656;23.394;2023-07-22T06:06:42;95088.00;;;27.83;46.62
77723;BME280;67811;42.656;23.394;2023-07-22T06:09:07;95092.97;;;28.00;46.69
77723;BME280;67811;42.656;23.394;2023-07-22T06:11:32;95101.28;;;28.08;46.90
77723;BME280;67811;42.656;23.394;2023-07-22T06:13:57;95099.28;;;28.52;45.91
77723;BME280;67811;42.656;23.394;2023-07-22T06:16:23;95105.66;;;28.61;45.07
77723;BME280;67811;42.656;23.394;2023-07-22T06:18:48;95105.91;;;28.46;44.17
77723;BME280;67811;42.656;23.394;2023-07-22T06:21:13;95125.22;;;28.30;44.28
77723;BME280;67811;42.656;23.394;2023-07-22T06:23:39;95121.09;;;28.52;44.64
77723;BME280;67811;42.656;23.394;2023-07-22T06:26:04;95118.63;;;28.69;45.45
77723;BME280;67811;42.656;23.394;2023-07-22T06:28:29;95126.31;;;29.00;44.36
77723;BME280;67811;42.656;23.394;2023-07-22T06:30:54;95127.06;;;29.19;44.55
77723;BME280;67811;42.656;23.394;2023-07-22T06:33:20;95125.75;;;29.30;44.13
77723;BME280;67811;42.656;23.394;2023-07-22T06:35:45;95123.53;;;29.46;43.70
77723;BME280;67811;42.656;23.394;2023-07-22T06:38:11;95119.59;;;29.66;43.55
77723;BME280;67811;42.656;23.394;2023-07-22T06:40:36;95126.59;;;29.58;43.08
77723;BME280;67811;42.656;23.394;2023-07-22T06:43:01;95128.75;;;29.61;43.98
77723;BME280;67811;42.656;23.394;2023-07-22T06:45:26;95128.88;;;29.92;42.52
77723;BME280;67811;42.656;23.394;2023-07-22T06:47:52;95122.22;;;30.12;42.17
77723;BME280;67811;42.656;23.394;2023-07-22T06:50:17;95127.50;;;30.31;42.02
77723;BME280;67811;42.656;23.394;2023-07-22T06:52:42;95130.00;;;30.41;41.65
77723;BME280;67811;42.656;23.394;2023-07-22T06:55:08;95131.75;;;30.74;41.12
77723;BME280;67811;42.656;23.394;2023-07-22T06:57:33;95130.66;;;30.61;41.02
77723;BME280;67811;42.656;23.394;2023-07-22T06:59:59;95126.59;;;30.36;40.97
77723;BME280;67811;42.656;23.394;2023-07-22T07:02:24;95121.28;;;30.17;40.47
77723;BME280;67811;42.656;23.394;2023-07-22T07:04:49;95111.22;;;29.62;41.85
77723;BME280;67811;42.656;23.394;2023-07-22T07:07:15;95107.09;;;30.15;41.87
77723;BME280;67811;42.656;23.394;2023-07-22T07:09:40;95116.72;;;30.49;40.17
77723;BME280;67811;42.656;23.394;2023-07-22T07:12:06;95114.41;;;30.06;40.63
77723;BME280;67811;42.656;23.394;2023-07-22T07:14:33;95112.47;;;30.20;41.44
77723;BME280;67811;42.656;23.394;2023-07-22T07:16:58;95120.59;;;29.98;40.70
77723;BME280;67811;42.656;23.394;2023-07-22T07:19:23;95120.34;;;30.58;40.76
77723;BME280;67811;42.656;23.394;2023-07-22T07:21:48;95109.53;;;30.75;39.14
77723;BME280;67811;42.656;23.394;2023-07-22T07:24:14;95114.25;;;30.38;40.09
77723;BME280;67811;42.656;23.394;2023-07-22T07:26:39;95104.38;;;30.15;40.25
77723;BME280;67811;42.656;23.394;2023-07-22T07:29:04;95105.72;;;30.40;40.36
77723;BME280;67811;42.656;23.394;2023-07-22T07:31:30;95109.06;;;30.59;39.84
77723;BME280;67811;42.656;23.394;2023-07-22T07:33:55;95092.28;;;30.52;38.76
77723;BME280;67811;42.656;23.394;2023-07-22T07:36:20;95099.56;;;30.57;40.03
77723;BME280;67811;42.656;23.394;2023-07-22T07:38:46;95103.91;;;30.72;40.22
77723;BME280;67811;42.656;23.394;2023-07-22T07:41:11;95097.22;;;30.41;39.60
77723;BME280;67811;42.656;23.394;2023-07-22T07:43:37;95096.56;;;30.08;40.47
77723;BME280;67811;42.656;23.394;2023-07-22T07:46:20;95093.97;;;30.03;40.91
77723;BME280;67811;42.656;23.394;2023-07-22T07:48:53;95089.19;;;30.45;40.74
77723;BME280;67811;42.656;23.394;2023-07-22T07:51:20;95087.84;;;31.41;38.82
77723;BME280;67811;42.656;23.394;2023-07-22T07:53:46;95091.19;;;31.78;37.66
77723;BME280;67811;42.656;23.394;2023-07-22T07:56:12;95086.28;;;32.58;36.75
77723;BME280;67811;42.656;23.394;2023-07-22T07:58:39;95095.31;;;32.93;37.21
77723;BME280;67811;42.656;23.394;2023-07-22T08:01:04;95084.84;;;32.60;35.51
77723;BME280;67811;42.656;23.394;2023-07-22T08:03:31;95084.19;;;32.55;37.26
77723;BME280;67811;42.656;23.394;2023-07-22T08:05:56;95081.25;;;32.86;36.67
77723;BME280;67811;42.656;23.394;2023-07-22T08:08:21;95083.81;;;33.08;35.66
77723;BME280;67811;42.656;23.394;2023-07-22T08:10:47;95086.50;;;33.17;35.26
77723;BME280;67811;42.656;23.394;2023-07-22T08:13:12;95069.09;;;34.10;34.45
77723;BME280;67811;42.656;23.394;2023-07-22T08:15:37;95073.94;;;33.83;33.94
77723;BME280;67811;42.656;23.394;2023-07-22T08:18:03;95085.69;;;33.25;33.97
77723;BME280;67811;42.656;23.394;2023-07-22T08:20:28;95078.06;;;32.49;35.37
77723;BME280;67811;42.656;23.394;2023-07-22T08:22:53;95080.97;;;32.35;36.75
77723;BME280;67811;42.656;23.394;2023-07-22T08:25:18;95068.38;;;31.99;36.46
77723;BME280;67811;42.656;23.394;2023-07-22T08:27:44;95068.22;;;32.05;36.13
77723;BME280;67811;42.656;23.394;2023-07-22T08:30:09;95075.16;;;32.28;36.24
77723;BME280;67811;42.656;23.394;2023-07-22T08:32:35;95073.69;;;32.31;35.90
77723;BME280;67811;42.656;23.394;2023-07-22T08:35:00;95078.72;;;32.46;35.84
77723;BME280;67811;42.656;23.394;2023-07-22T08:37:25;95069.03;;;32.31;35.74
77723;BME280;67811;42.656;23.394;2023-07-22T08:39:50;95074.47;;;32.74;35.76
77723;BME280;67811;42.656;23.394;2023-07-22T08:42:18;95073.06;;;33.24;35.15
77723;BME280;67811;42.656;23.394;2023-07-22T08:44:45;95054.81;;;33.66;33.72
77723;BME280;67811;42.656;23.394;2023-07-22T08:47:16;95046.44;;;33.63;33.21
77723;BME280;67811;42.656;23.394;2023-07-22T08:49:46;95041.81;;;33.46;33.74
77723;BME280;67811;42.656;23.394;2023-07-22T08:52:14;95041.06;;;32.90;34.47
77723;BME280;67811;42.656;23.394;2023-07-22T08:54:40;95036.00;;;33.00;34.00
77723;BME280;67811;42.656;23.394;2023-07-22T08:57:08;95025.69;;;33.44;34.05
77723;BME280;67811;42.656;23.394;2023-07-22T08:59:34;95014.97;;;33.51;32.94
77723;BME280;67811;42.656;23.394;2023-07-22T09:02:00;95028.41;;;33.06;32.99
77723;BME280;67811;42.656;23.394;2023-07-22T09:04:26;95031.69;;;32.82;34.02
77723;BME280;67811;42.656;23.394;2023-07-22T09:06:51;95025.00;;;33.09;34.18
77723;BME280;67811;42.656;23.394;2023-07-22T09:09:17;95028.94;;;33.29;33.97
77723;BME280;67811;42.656;23.394;2023-07-22T09:11:45;95015.13;;;33.55;33.33
77723;BME280;67811;42.656;23.394;2023-07-22T09:14:10;95024.56;;;33.66;33.62
77723;BME280;67811;42.656;23.394;2023-07-22T09:16:36;95018.44;;;33.90;33.84
77723;BME280;67811;42.656;23.394;2023-07-22T09:19:03;95019.97;;;34.42;32.75
77723;BME280;67811;42.656;23.394;2023-07-22T09:21:29;95012.03;;;34.94;31.82
77723;BME280;67811;42.656;23.394;2023-07-22T09:23:54;95010.38;;;34.81;31.92
77723;BME280;67811;42.656;23.394;2023-07-22T09:26:19;95008.84;;;35.04;31.74
77723;BME280;67811;42.656;23.394;2023-07-22T09:28:49;95018.25;;;35.03;31.28
77723;BME280;67811;42.656;23.394;2023-07-22T09:31:15;95009.63;;;35.05;31.00
77723;BME280;67811;42.656;23.394;2023-07-22T09:33:40;95004.31;;;34.21;31.98
77723;BME280;67811;42.656;23.394;2023-07-22T09:36:05;95007.34;;;34.07;32.56
77723;BME280;67811;42.656;23.394;2023-07-22T09:38:30;95005.38;;;33.87;32.20
77723;BME280;67811;42.656;23.394;2023-07-22T09:40:56;95004.63;;;34.62;31.95
77723;BME280;67811;42.656;23.394;2023-07-22T09:43:23;94997.66;;;35.46;30.57
77723;BME280;67811;42.656;23.394;2023-07-22T09:45:48;94995.88;;;35.78;30.64
77723;BME280;67811;42.656;23.394;2023-07-22T09:48:14;94986.97;;;35.57;30.19
77723;BME280;67811;42.656;23.394;2023-07-22T09:50:40;94994.84;;;35.22;29.98
77723;BME280;67811;42.656;23.394;2023-07-22T09:53:06;94990.72;;;35.03;31.20
77723;BME280;67811;42.656;23.394;2023-07-22T09:55:32;94984.53;;;35.31;30.01
77723;BME280;67811;42.656;23.394;2023-07-22T09:58:04;94985.16;;;36.01;29.26
77723;BME280;67811;42.656;23.394;2023-07-22T10:00:34;94980.66;;;36.37;28.88
77723;BME280;67811;42.656;23.394;2023-07-22T10:03:01;94988.50;;;36.63;27.66
77723;BME280;67811;42.656;23.394;2023-07-22T10:05:28;94980.41;;;36.54;28.22
77723;BME280;67811;42.656;23.394;2023-07-22T10:07:55;94975.50;;;36.63;27.90
77723;BME280;67811;42.656;23.394;2023-07-22T10:10:25;94981.66;;;36.73;28.38
77723;BME280;67811;42.656;23.394;2023-07-22T10:12:50;94974.91;;;36.42;28.58
77723;BME280;67811;42.656;23.394;2023-07-22T10:15:16;94988.88;;;36.77;28.61
77723;BME280;67811;42.656;23.394;2023-07-22T10:17:43;94984.66;;;37.11;26.75
77723;BME280;67811;42.656;23.394;2023-07-22T10:20:11;94987.94;;;37.17;27.37
77723;BME280;67811;42.656;23.394;2023-07-22T10:22:37;94980.31;;;37.42;26.83
77723;BME280;67811;42.656;23.394;2023-07-22T10:25:04;94979.13;;;37.27;26.27
77723;BME280;67811;42.656;23.394;2023-07-22T10:27:31;94978.13;;;37.19;25.91
77723;BME280;67811;42.656;23.394;2023-07-22T10:29:56;94974.25;;;36.61;26.26
77723;BME280;67811;42.656;23.394;2023-07-22T10:32:21;94972.38;;;36.49;27.06
77723;BME280;67811;42.656;23.394;2023-07-22T10:34:46;94969.16;;;36.63;26.70
77723;BME280;67811;42.656;23.394;2023-07-22T10:37:12;94965.13;;;36.88;26.73
77723;BME280;67811;42.656;23.394;2023-07-22T10:39:37;94959.78;;;37.43;26.46
77723;BME280;67811;42.656;23.394;2023-07-22T10:42:04;94957.06;;;37.62;25.54
77723;BME280;67811;42.656;23.394;2023-07-22T10:44:36;94955.38;;;37.58;25.52
77723;BME280;67811;42.656;23.394;2023-07-22T10:47:03;94949.88;;;37.93;24.33
77723;BME280;67811;42.656;23.394;2023-07-22T10:49:45;94948.09;;;37.85;25.04
77723;BME280;67811;42.656;23.394;2023-07-22T10:52:12;94958.81;;;38.06;24.53
77723;BME280;67811;42.656;23.394;2023-07-22T10:54:38;94946.97;;;38.44;24.20
77723;BME280;67811;42.656;23.394;2023-07-22T10:57:22;94937.34;;;38.57;23.81
77723;BME280;67811;42.656;23.394;2023-07-22T10:59:49;94948.41;;;38.57;24.00
77723;BME280;67811;42.656;23.394;2023-07-22T11:02:25;94939.06;;;38.07;22.09
77723;BME280;67811;42.656;23.394;2023-07-22T11:04:51;94925.78;;;37.58;22.67
77723;BME280;67811;42.656;23.394;2023-07-22T11:07:30;94934.94;;;37.62;22.68
77723;BME280;67811;42.656;23.394;2023-07-22T11:09:55;94932.56;;;37.45;22.24
77723;BME280;67811;42.656;23.394;2023-07-22T11:12:21;94938.59;;;37.15;22.73
77723;BME280;67811;42.656;23.394;2023-07-22T11:15:02;94927.53;;;37.15;23.26
77723;BME280;67811;42.656;23.394;2023-07-22T11:17:30;94929.72;;;37.41;22.75
77723;BME280;67811;42.656;23.394;2023-07-22T11:19:56;94933.53;;;37.53;23.16
77723;BME280;67811;42.656;23.394;2023-07-22T11:22:22;94925.84;;;38.36;22.46
77723;BME280;67811;42.656;23.394;2023-07-22T11:24:47;94914.47;;;37.83;22.07
77723;BME280;67811;42.656;23.394;2023-07-22T11:27:12;94926.09;;;37.37;22.61
77723;BME280;67811;42.656;23.394;2023-07-22T11:29:38;94942.69;;;36.90;23.31
77723;BME280;67811;42.656;23.394;2023-07-22T11:32:03;94924.31;;;36.98;23.59
77723;BME280;67811;42.656;23.394;2023-07-22T11:34:29;94914.75;;;36.79;24.19
77723;BME280;67811;42.656;23.394;2023-07-22T11:36:55;94913.34;;;36.85;23.36
77723;BME280;67811;42.656;23.394;2023-07-22T11:39:23;94916.84;;;36.98;23.43
77723;BME280;67811;42.656;23.394;2023-07-22T11:41:49;94907.53;;;37.22;23.58
77723;BME280;67811;42.656;23.394;2023-07-22T11:44:17;94911.09;;;37.23;22.86
77723;BME280;67811;42.656;23.394;2023-07-22T11:52:00;94893.47;;;37.11;22.12
77723;BME280;67811;42.656;23.394;2023-07-22T11:54:27;94890.09;;;37.02;23.20
77723;BME280;67811;42.656;23.394;2023-07-22T11:56:52;94893.59;;;36.99;23.39
77723;BME280;67811;42.656;23.394;2023-07-22T11:59:32;94899.16;;;37.18;23.48
77723;BME280;67811;42.656;23.394;2023-07-22T12:01:59;94892.00;;;37.49;22.53
77723;BME280;67811;42.656;23.394;2023-07-22T12:04:25;94908.72;;;37.37;22.88
77723;BME280;67811;42.656;23.394;2023-07-22T12:06:50;94898.53;;;37.25;23.60
77723;BME280;67811;42.656;23.394;2023-07-22T12:09:15;94905.59;;;37.38;23.50
77723;BME280;67811;42.656;23.394;2023-07-22T12:11:40;94893.69;;;37.54;22.98
77723;BME280;67811;42.656;23.394;2023-07-22T12:14:07;94883.38;;;37.70;23.11
77723;BME280;67811;42.656;23.394;2023-07-22T12:16:34;94880.56;;;37.86;22.62
77723;BME280;67811;42.656;23.394;2023-07-22T12:19:01;94890.16;;;37.37;23.38
77723;BME280;67811;42.656;23.394;2023-07-22T12:21:27;94881.88;;;37.22;23.75
77723;BME280;67811;42.656;23.394;2023-07-22T12:23:52;94874.25;;;37.34;23.00
77723;BME280;67811;42.656;23.394;2023-07-22T12:26:18;94877.00;;;37.50;23.37
77723;BME280;67811;42.656;23.394;2023-07-22T12:28:43;94878.31;;;37.56;23.09
77723;BME280;67811;42.656;23.394;2023-07-22T12:31:08;94864.69;;;36.81;24.41
77723;BME280;67811;42.656;23.394;2023-07-22T12:33:34;94864.91;;;37.39;23.31
77723;BME280;67811;42.656;23.394;2023-07-22T12:35:59;94865.00;;;37.42;23.71
77723;BME280;67811;42.656;23.394;2023-07-22T12:38:24;94868.97;;;37.80;23.54
77723;BME280;67811;42.656;23.394;2023-07-22T12:40:49;94864.34;;;37.68;22.85
77723;BME280;67811;42.656;23.394;2023-07-22T12:43:15;94864.00;;;37.70;23.22
77723;BME280;67811;42.656;23.394;2023-07-22T12:45:40;94861.63;;;37.88;22.77
77723;BME280;67811;42.656;23.394;2023-07-22T12:48:06;94856.94;;;38.11;23.30